createdAt,value
2022-10-26T00:01:03.412Z,101124.19
2022-10-26T00:03:31.107Z,101120.53
2022-10-26T00:06:02.637Z,101108.22
2022-10-26T00:08:28.915Z,101112.84
2022-10-26T00:10:57.169Z,101095.91
2022-10-26T00:13:23.509Z,101101.38
2022-10-26T00:15:49.858Z,101095.75
2022-10-26T00:18:16.170Z,101086.78
2022-10-26T00:20:43.823Z,101094.44
2022-10-26T00:23:10.167Z,101088.81
2022-10-26T00:25:36.511Z,101080.00
2022-10-26T00:28:02.816Z,101081.38
2022-10-26T00:30:29.119Z,101084.88
2022-10-26T00:32:55.450Z,101080.19
2022-10-26T00:35:24.347Z,101082.22
2022-10-26T00:38:02.348Z,101081.03
2022-10-26T00:40:29.023Z,101081.88
2022-10-26T00:42:55.313Z,101083.88
2022-10-26T00:45:23.036Z,101084.53
2022-10-26T00:47:50.966Z,101093.34
2022-10-26T00:50:19.954Z,101093.19
2022-10-26T00:52:46.799Z,101086.88
2022-10-26T00:55:14.888Z,101085.22
2022-10-26T00:57:41.344Z,101085.38
2022-10-26T01:00:08.370Z,101072.41
2022-10-26T01:02:34.757Z,101066.56
2022-10-26T01:05:02.970Z,101076.19
2022-10-26T01:07:29.270Z,101071.88
2022-10-26T01:09:55.693Z,101069.00
2022-10-26T01:12:23.337Z,101065.13
2022-10-26T01:14:49.864Z,101066.97
2022-10-26T01:17:23.988Z,101054.78
2022-10-26T01:20:00.226Z,101064.16
2022-10-26T01:22:29.614Z,101058.53
2022-10-26T01:25:03.400Z,101051.53
2022-10-26T01:27:33.121Z,101051.53
2022-10-26T01:30:11.700Z,101043.69
2022-10-26T01:32:40.358Z,101040.06
2022-10-26T01:35:09.049Z,101029.41
2022-10-26T01:37:37.621Z,101031.69
2022-10-26T01:40:06.715Z,101033.06
2022-10-26T01:42:35.089Z,101030.56
2022-10-26T01:45:03.915Z,101027.59
2022-10-26T01:47:33.707Z,101024.41
2022-10-26T01:50:01.411Z,101027.75
2022-10-26T01:52:28.040Z,101020.44
2022-10-26T01:55:00.168Z,101022.97
2022-10-26T01:57:26.465Z,101020.94
2022-10-26T01:59:58.800Z,101021.63
2022-10-26T02:02:32.283Z,101020.66
2022-10-26T02:05:08.966Z,101024.81
2022-10-26T02:07:40.015Z,101017.53
2022-10-26T02:10:12.250Z,101007.72
2022-10-26T02:12:42.398Z,101008.38
2022-10-26T02:15:11.960Z,101012.84
2022-10-26T02:17:44.018Z,101009.41
2022-10-26T02:20:15.137Z,101009.41
2022-10-26T02:22:45.039Z,101011.88
2022-10-26T02:25:13.181Z,101010.38
2022-10-26T02:27:42.455Z,101002.06
2022-10-26T02:30:09.880Z,101006.06
2022-10-26T02:32:38.064Z,100997.72
2022-10-26T02:35:05.124Z,101000.41
2022-10-26T02:37:34.380Z,100997.72
2022-10-26T02:40:02.758Z,100987.78
2022-10-26T02:42:29.377Z,100984.63
2022-10-26T02:44:57.526Z,100993.09
2022-10-26T02:47:24.339Z,100975.31
2022-10-26T02:49:50.790Z,100979.63
2022-10-26T02:52:21.350Z,100971.34
2022-10-26T02:54:52.927Z,100973.84
2022-10-26T02:57:21.064Z,100968.31
2022-10-26T02:59:47.673Z,100973.31
2022-10-26T03:02:15.581Z,100969.53
2022-10-26T03:04:41.962Z,100972.03
2022-10-26T03:07:08.257Z,100971.19
2022-10-26T03:09:34.579Z,100973.50
2022-10-26T03:12:02.285Z,100975.03
2022-10-26T03:14:28.559Z,100972.22
2022-10-26T03:16:54.859Z,100970.22
2022-10-26T03:19:21.249Z,100975.56
2022-10-26T03:21:47.528Z,100968.09
2022-10-26T03:24:13.824Z,100968.94
2022-10-26T03:26:40.175Z,100973.22
2022-10-26T03:29:07.790Z,100972.78
2022-10-26T03:31:34.108Z,100977.13
2022-10-26T03:34:00.441Z,100970.97
2022-10-26T03:36:26.723Z,100967.16
2022-10-26T03:38:53.004Z,100971.50
2022-10-26T03:41:19.317Z,100969.47
2022-10-26T03:43:45.652Z,100971.97
2022-10-26T03:46:13.307Z,100970.31
2022-10-26T03:48:39.600Z,100977.31
2022-10-26T03:51:06.053Z,100977.81
2022-10-26T03:53:32.359Z,100975.00
2022-10-26T03:55:58.658Z,100975.69
2022-10-26T04:00:56.769Z,100965.34
2022-10-26T04:03:24.415Z,100974.84
2022-10-26T04:05:50.733Z,100969.69
2022-10-26T04:08:17.009Z,100962.69
2022-10-26T04:10:45.296Z,100967.50
2022-10-26T04:13:11.809Z,100963.69
2022-10-26T04:15:38.122Z,100966.34
2022-10-26T04:18:04.548Z,100966.34
2022-10-26T04:20:33.216Z,100953.88
2022-10-26T04:23:00.307Z,100963.53
2022-10-26T04:25:30.073Z,100964.38
2022-10-26T04:27:59.096Z,100966.72
2022-10-26T04:30:25.380Z,100968.19
2022-10-26T04:32:51.856Z,100965.38
2022-10-26T04:35:18.274Z,100971.53
2022-10-26T04:37:45.954Z,100966.03
2022-10-26T04:40:12.300Z,100965.06
2022-10-26T04:42:41.866Z,100965.72
2022-10-26T04:45:08.933Z,100957.75
2022-10-26T04:47:35.228Z,100958.22
2022-10-26T04:50:01.520Z,100962.72
2022-10-26T04:52:27.804Z,100969.56
2022-10-26T04:54:55.410Z,100964.06
2022-10-26T04:57:21.717Z,100957.75
2022-10-26T04:59:48.031Z,100957.44
2022-10-26T05:02:14.410Z,100956.44
2022-10-26T05:04:41.317Z,100959.59
2022-10-26T05:07:07.609Z,100953.28
2022-10-26T05:09:33.909Z,100953.28
2022-10-26T05:12:01.507Z,100948.78
2022-10-26T05:14:27.809Z,100948.47
2022-10-26T05:16:54.084Z,100954.63
2022-10-26T05:19:20.385Z,100948.31
2022-10-26T05:21:46.693Z,100956.13
2022-10-26T05:24:12.974Z,100960.47
2022-10-26T05:26:39.260Z,100961.13
2022-10-26T05:29:06.891Z,100960.78
2022-10-26T05:31:33.172Z,100967.78
2022-10-26T05:33:59.456Z,100969.31
2022-10-26T05:36:25.784Z,100968.47
2022-10-26T05:38:52.099Z,100966.47
2022-10-26T05:41:18.434Z,100964.66
2022-10-26T05:43:46.855Z,100965.47
2022-10-26T05:46:14.472Z,100970.81
2022-10-26T05:48:40.780Z,100970.63
2022-10-26T05:51:07.076Z,100972.28
2022-10-26T05:53:33.373Z,100977.63
2022-10-26T05:56:00.026Z,100982.78
2022-10-26T05:58:26.618Z,100983.63
2022-10-26T06:01:01.784Z,100986.28
2022-10-26T06:03:37.668Z,100979.13
2022-10-26T06:06:06.622Z,100988.78
2022-10-26T06:08:33.933Z,100988.78
2022-10-26T06:11:00.451Z,100986.97
2022-10-26T06:13:26.998Z,100990.47
2022-10-26T06:16:04.937Z,100995.78
2022-10-26T06:18:37.581Z,100993.94
2022-10-26T06:21:09.913Z,101000.13
2022-10-26T06:23:40.041Z,101004.44
2022-10-26T06:26:11.638Z,101004.44
2022-10-26T06:28:45.040Z,101000.78
2022-10-26T06:31:14.210Z,101001.63
2022-10-26T06:33:41.994Z,101008.59
2022-10-26T06:36:13.622Z,101006.75
2022-10-26T06:38:41.392Z,101007.44
2022-10-26T06:41:07.977Z,101011.94
2022-10-26T06:43:35.346Z,101015.28
2022-10-26T06:46:07.663Z,101012.44
2022-10-26T06:48:37.969Z,101007.97
2022-10-26T06:51:05.908Z,100998.97
2022-10-26T06:53:34.641Z,100996.31
2022-10-26T06:56:01.209Z,100998.44
2022-10-26T06:58:29.235Z,100995.63
2022-10-26T07:00:56.289Z,101000.78
2022-10-26T07:03:22.820Z,101000.78
2022-10-26T07:05:49.428Z,101006.13
2022-10-26T07:08:17.337Z,100995.47
2022-10-26T07:10:43.618Z,101004.47
2022-10-26T07:13:10.387Z,101000.47
2022-10-26T07:15:37.284Z,100999.81
2022-10-26T07:18:04.542Z,101006.97
2022-10-26T07:20:31.523Z,101004.97
2022-10-26T07:22:58.250Z,101011.78
2022-10-26T07:25:26.220Z,101013.28
2022-10-26T07:27:52.573Z,101016.78
2022-10-26T07:30:18.950Z,101019.44
2022-10-26T07:32:45.227Z,101026.28
2022-10-26T07:35:11.615Z,101021.78
2022-10-26T07:37:37.895Z,101028.78
2022-10-26T07:40:06.654Z,101026.44
2022-10-26T07:42:34.645Z,101030.16
2022-10-26T07:45:00.919Z,101031.13
2022-10-26T07:47:27.229Z,101044.31
2022-10-26T07:49:53.555Z,101042.28
2022-10-26T07:52:19.863Z,101038.50
2022-10-26T07:54:46.152Z,101046.97
2022-10-26T07:57:12.462Z,101062.66
2022-10-26T07:59:40.206Z,101072.81
2022-10-26T08:02:06.533Z,101084.13
2022-10-26T08:04:32.899Z,101096.44
2022-10-26T08:06:59.181Z,101084.94
2022-10-26T08:09:25.461Z,101080.41
2022-10-26T08:11:51.742Z,101078.38
2022-10-26T08:14:18.057Z,101083.50
2022-10-26T08:16:45.688Z,101084.28
2022-10-26T08:19:11.960Z,101084.28
2022-10-26T08:21:41.197Z,101096.59
2022-10-26T08:24:07.836Z,101092.06
2022-10-26T08:26:34.142Z,101088.50
2022-10-26T08:29:00.447Z,101094.47
2022-10-26T08:31:26.712Z,101097.13
2022-10-26T08:33:54.355Z,101099.72
2022-10-26T08:36:23.414Z,101102.34
2022-10-26T08:38:49.753Z,101091.41
2022-10-26T08:41:16.237Z,101110.09
2022-10-26T08:43:45.699Z,101102.84
2022-10-26T08:46:13.849Z,101098.25
2022-10-26T08:48:41.783Z,101103.34
2022-10-26T08:51:13.128Z,101103.28
2022-10-26T08:53:41.661Z,101098.50
2022-10-26T08:56:11.226Z,101104.47
2022-10-26T08:58:39.907Z,101105.69
2022-10-26T09:01:08.213Z,101109.41
2022-10-26T09:03:34.592Z,101113.09
2022-10-26T09:06:09.126Z,101118.00
2022-10-26T09:08:40.988Z,101113.38
2022-10-26T09:11:11.554Z,101105.03
2022-10-26T09:13:40.149Z,101100.44
2022-10-26T09:16:09.689Z,101092.09
2022-10-26T09:18:43.024Z,101105.38
2022-10-26T09:21:14.942Z,101109.59
2022-10-26T09:23:52.150Z,101118.22
2022-10-26T09:26:27.128Z,101125.94
2022-10-26T09:28:53.811Z,101134.75
2022-10-26T09:31:20.121Z,101131.09
2022-10-26T09:33:46.814Z,101149.28
2022-10-26T09:36:17.879Z,101153.28
2022-10-26T09:38:47.234Z,101161.59
2022-10-26T09:41:24.442Z,101172.56
2022-10-26T09:43:55.485Z,101170.78
2022-10-26T09:46:24.915Z,101171.88
2022-10-26T09:48:53.939Z,101171.09
2022-10-26T09:51:20.450Z,101186.28
2022-10-26T09:53:48.271Z,101180.75
2022-10-26T09:56:16.781Z,101193.22
2022-10-26T09:58:44.616Z,101195.00
2022-10-26T10:01:20.597Z,101202.44
2022-10-26T10:03:46.927Z,101200.69
2022-10-26T10:06:17.810Z,101194.31
2022-10-26T10:08:44.526Z,101188.34
2022-10-26T10:11:11.749Z,101199.31
2022-10-26T10:13:40.488Z,101198.03
2022-10-26T10:16:10.080Z,101209.16
2022-10-26T10:18:36.744Z,101212.44
2022-10-26T10:21:03.343Z,101224.03
2022-10-26T10:23:31.067Z,101228.16
2022-10-26T10:26:01.418Z,101219.91
2022-10-26T10:28:28.209Z,101231.28
2022-10-26T10:30:56.985Z,101239.38
2022-10-26T10:33:23.295Z,101235.66
2022-10-26T10:35:50.638Z,101238.78
2022-10-26T10:38:18.361Z,101245.22
2022-10-26T10:40:49.944Z,101252.91
2022-10-26T10:43:16.319Z,101264.97
2022-10-26T10:45:46.821Z,101266.41
2022-10-26T10:48:15.903Z,101274.28
2022-10-26T10:50:51.338Z,101262.50
2022-10-26T10:53:20.691Z,101267.69
2022-10-26T10:55:52.374Z,101273.28
2022-10-26T10:58:22.249Z,101265.69
2022-10-26T11:00:48.824Z,101259.28
2022-10-26T11:03:26.107Z,101271.13
2022-10-26T11:05:58.940Z,101272.16
2022-10-26T11:08:28.324Z,101269.47
2022-10-26T11:10:59.917Z,101269.47
2022-10-26T11:13:29.052Z,101269.00
2022-10-26T11:15:59.247Z,101279.75
2022-10-26T11:18:30.850Z,101285.78
2022-10-26T11:21:03.228Z,101287.44
2022-10-26T11:23:33.781Z,101287.69
2022-10-26T11:26:04.643Z,101287.31
2022-10-26T11:28:37.322Z,101292.03
2022-10-26T11:31:07.722Z,101290.19
2022-10-26T11:33:40.283Z,101299.72
2022-10-26T11:36:08.492Z,101311.31
2022-10-26T11:38:46.135Z,101302.03
2022-10-26T11:41:21.273Z,101302.25
2022-10-26T11:43:48.579Z,101297.34
2022-10-26T11:46:19.168Z,101301.28
2022-10-26T11:48:51.226Z,101308.56
2022-10-26T11:51:20.444Z,101309.03
2022-10-26T11:53:47.666Z,101310.50
2022-10-26T11:56:16.982Z,101305.09
2022-10-26T11:58:44.468Z,101307.22
2022-10-26T12:01:13.121Z,101304.97
2022-10-26T12:03:41.733Z,101299.16
2022-10-26T12:06:09.852Z,101309.91
2022-10-26T12:08:37.314Z,101313.44
2022-10-26T12:13:36.853Z,101313.25
2022-10-26T12:16:07.820Z,101318.84
2022-10-26T12:18:54.519Z,101320.31
2022-10-26T12:21:23.943Z,101310.41
2022-10-26T12:23:54.302Z,101326.19
2022-10-26T12:26:47.351Z,101330.16
2022-10-26T12:29:33.238Z,101332.41
2022-10-26T12:31:59.569Z,101339.28
2022-10-26T12:34:47.502Z,101335.38
2022-10-26T12:37:28.390Z,101341.38
2022-10-26T12:39:54.666Z,101334.53
2022-10-26T12:42:28.608Z,101350.03
2022-10-26T12:45:02.073Z,101344.84
2022-10-26T12:47:55.371Z,101347.34
2022-10-26T12:50:23.009Z,101349.84
2022-10-26T12:52:52.715Z,101351.53
2022-10-26T12:55:34.089Z,101351.97
2022-10-26T12:58:07.876Z,101350.09
2022-10-26T13:00:38.400Z,101356.09
2022-10-26T13:03:12.965Z,101352.19
2022-10-26T13:05:57.163Z,101354.47
2022-10-26T13:08:24.953Z,101348.72
2022-10-26T13:11:01.628Z,101346.66
2022-10-26T13:13:29.897Z,101342.91
2022-10-26T13:15:57.076Z,101347.06
2022-10-26T13:18:23.686Z,101351.63
2022-10-26T13:20:54.101Z,101354.50
2022-10-26T13:23:24.444Z,101356.97
2022-10-26T13:26:02.482Z,101354.47
2022-10-26T13:28:33.469Z,101370.66
2022-10-26T13:30:59.749Z,101366.09
2022-10-26T13:33:34.072Z,101370.66
2022-10-26T13:36:02.419Z,101375.00
2022-10-26T13:38:31.940Z,101378.34
2022-10-26T13:41:15.981Z,101371.91
2022-10-26T13:43:43.126Z,101370.66
2022-10-26T13:46:20.603Z,101368.19
2022-10-26T13:48:47.037Z,101381.66
2022-10-26T13:51:18.051Z,101376.88
2022-10-26T13:53:46.750Z,101379.38
2022-10-26T13:56:17.617Z,101381.03
2022-10-26T13:58:47.489Z,101383.53
2022-10-26T14:01:15.960Z,101378.81
2022-10-26T14:03:42.809Z,101391.81
2022-10-26T14:06:14.852Z,101381.84
2022-10-26T14:08:42.148Z,101390.06
2022-10-26T14:11:12.217Z,101388.38
2022-10-26T14:13:42.626Z,101387.34
2022-10-26T14:16:11.788Z,101386.72
2022-10-26T14:18:40.786Z,101386.25
2022-10-26T14:21:08.143Z,101388.75
2022-10-26T14:23:35.700Z,101389.19
2022-10-26T14:26:02.346Z,101394.56
2022-10-26T14:28:29.354Z,101388.53
2022-10-26T14:33:50.506Z,101418.69
2022-10-26T14:36:17.987Z,101413.88
2022-10-26T14:38:46.234Z,101423.38
2022-10-26T14:41:14.156Z,101434.72
2022-10-26T14:43:40.522Z,101425.34
2022-10-26T14:46:11.569Z,101434.84
2022-10-26T14:48:40.601Z,101439.38
2022-10-26T14:51:10.547Z,101445.19
2022-10-26T14:53:38.066Z,101458.28
2022-10-26T14:56:05.318Z,101453.00
2022-10-26T14:58:32.962Z,101454.09
2022-10-26T15:04:26.540Z,101460.88
2022-10-26T15:07:00.801Z,101465.47
2022-10-26T15:09:31.554Z,101464.50
2022-10-26T15:11:57.971Z,101470.03
2022-10-26T15:14:24.412Z,101476.59
2022-10-26T15:16:52.748Z,101473.66
2022-10-26T15:19:20.556Z,101480.22
2022-10-26T15:21:49.974Z,101476.63
2022-10-26T15:24:26.010Z,101483.81
2022-10-26T15:26:52.497Z,101482.25
2022-10-26T15:29:33.700Z,101487.34
2022-10-26T15:32:00.415Z,101487.94
2022-10-26T15:34:27.675Z,101495.94
2022-10-26T15:36:54.173Z,101504.78
2022-10-26T15:39:21.902Z,101507.38
2022-10-26T15:41:48.856Z,101517.69
2022-10-26T15:44:17.653Z,101519.28
2022-10-26T15:46:44.067Z,101523.09
2022-10-26T15:49:15.261Z,101527.56
2022-10-26T15:51:48.895Z,101525.44
2022-10-26T15:54:15.406Z,101527.84
2022-10-26T15:56:57.027Z,101530.28
2022-10-26T15:59:23.443Z,101528.31
2022-10-26T16:01:51.280Z,101529.06
2022-10-26T16:04:17.719Z,101528.16
2022-10-26T16:06:44.044Z,101539.41
2022-10-26T16:09:12.830Z,101536.47
2022-10-26T16:11:39.149Z,101549.44
2022-10-26T16:14:06.886Z,101549.31
2022-10-26T16:16:33.292Z,101551.72
2022-10-26T16:19:18.548Z,101556.78
2022-10-26T16:21:45.991Z,101560.22
2022-10-26T16:24:12.331Z,101559.09
2022-10-26T16:26:38.948Z,101567.53
2022-10-26T16:29:07.866Z,101572.41
2022-10-26T16:31:34.213Z,101573.16
2022-10-26T16:34:03.286Z,101570.00
2022-10-26T16:36:31.100Z,101572.19
2022-10-26T16:38:57.440Z,101579.13
2022-10-26T16:43:56.014Z,101574.34
2022-10-26T16:46:23.992Z,101575.06
2022-10-26T16:48:50.881Z,101587.34
2022-10-26T16:51:18.341Z,101591.78
2022-10-26T16:53:46.474Z,101585.38
2022-10-26T16:56:13.603Z,101588.63
2022-10-26T16:58:40.529Z,101604.56
2022-10-26T17:01:07.454Z,101603.25
2022-10-26T17:03:35.237Z,101605.78
2022-10-26T17:06:02.669Z,101606.34
2022-10-26T17:08:29.337Z,101613.06
2022-10-26T17:11:01.601Z,101621.13
2022-10-26T17:13:27.917Z,101616.28
2022-10-26T17:15:54.232Z,101619.47
2022-10-26T17:18:20.530Z,101618.16
2022-10-26T17:20:51.314Z,101625.88
2022-10-26T17:23:17.713Z,101635.94
2022-10-26T17:25:44.088Z,101631.94
2022-10-26T17:28:10.415Z,101641.31
2022-10-26T17:30:36.706Z,101643.31
2022-10-26T17:33:03.006Z,101647.19
2022-10-26T17:35:29.308Z,101645.69
2022-10-26T17:37:56.926Z,101646.19
2022-10-26T17:40:23.251Z,101646.72
2022-10-26T17:42:49.554Z,101646.06
2022-10-26T17:45:15.934Z,101655.41
2022-10-26T17:47:42.254Z,101653.91
2022-10-26T17:50:08.969Z,101657.94
2022-10-26T17:52:35.482Z,101664.81
2022-10-26T17:55:03.262Z,101672.50
2022-10-26T17:57:29.737Z,101680.00
2022-10-26T17:59:56.052Z,101681.19
2022-10-26T18:02:22.448Z,101689.56
2022-10-26T18:04:48.799Z,101688.53
2022-10-26T18:07:15.121Z,101682.72
2022-10-26T18:09:41.885Z,101684.88
2022-10-26T18:12:09.526Z,101687.03
2022-10-26T18:14:35.913Z,101688.19
2022-10-26T18:17:02.206Z,101695.56
2022-10-26T18:19:28.519Z,101695.72
2022-10-26T18:21:54.814Z,101693.38
2022-10-26T18:24:21.106Z,101705.91
2022-10-26T18:26:47.394Z,101720.47
2022-10-26T18:29:15.129Z,101727.16
2022-10-26T18:31:43.625Z,101726.50
2022-10-26T18:34:10.457Z,101727.50
2022-10-26T18:39:04.158Z,101729.63
2022-10-26T18:41:30.455Z,101728.81
2022-10-26T18:43:57.213Z,101740.69
2022-10-26T18:46:25.853Z,101741.69
2022-10-26T18:48:52.558Z,101732.81
2022-10-26T18:51:19.786Z,101732.00
2022-10-26T18:53:46.345Z,101742.84
2022-10-26T18:56:13.260Z,101738.50
2022-10-26T18:58:40.280Z,101745.00
2022-10-26T19:01:08.379Z,101755.84
2022-10-26T19:03:36.181Z,101750.69
2022-10-26T19:06:09.227Z,101751.50
2022-10-26T19:08:35.542Z,101753.38
2022-10-26T19:11:02.015Z,101757.03
2022-10-26T19:13:28.318Z,101754.53
2022-10-26T19:15:59.193Z,101746.81
2022-10-26T19:18:25.611Z,101749.66
2022-10-26T19:20:56.899Z,101759.50
2022-10-26T19:23:23.252Z,101752.47
2022-10-26T19:25:55.018Z,101756.00
2022-10-26T19:28:21.321Z,101762.50
2022-10-26T19:30:47.613Z,101773.53
2022-10-26T19:33:13.903Z,101773.69
2022-10-26T19:35:40.204Z,101770.19
2022-10-26T19:38:07.840Z,101774.00
2022-10-26T19:40:34.132Z,101766.97
2022-10-26T19:43:00.416Z,101770.66
2022-10-26T19:45:26.715Z,101771.66
2022-10-26T19:47:53.146Z,101774.66
2022-10-26T19:50:19.476Z,101776.66
2022-10-26T19:52:45.827Z,101774.97
2022-10-26T19:55:13.661Z,101779.31
2022-10-26T19:57:39.953Z,101789.34
2022-10-26T20:00:06.968Z,101786.66
2022-10-26T20:02:33.256Z,101791.31
2022-10-26T20:04:59.563Z,101795.00
2022-10-26T20:07:25.872Z,101796.81
2022-10-26T20:09:52.180Z,101795.00
2022-10-26T20:12:19.806Z,101803.84
2022-10-26T20:14:46.119Z,101806.53
2022-10-26T20:17:12.409Z,101807.22
2022-10-26T20:19:38.729Z,101808.75
2022-10-26T20:22:05.014Z,101815.63
2022-10-26T20:24:31.339Z,101820.81
2022-10-26T20:26:57.607Z,101823.63
2022-10-26T20:29:25.226Z,101821.13
2022-10-26T20:31:55.833Z,101822.13
2022-10-26T20:34:22.489Z,101822.41
2022-10-26T20:36:48.828Z,101827.09
2022-10-26T20:39:15.450Z,101830.09
2022-10-26T20:41:42.246Z,101826.06
2022-10-26T20:44:15.987Z,101832.53
2022-10-26T20:46:44.083Z,101835.38
2022-10-26T20:49:10.622Z,101839.38
2022-10-26T20:51:39.912Z,101836.31
2022-10-26T20:54:13.846Z,101837.44
2022-10-26T20:56:40.780Z,101839.44
2022-10-26T20:59:10.838Z,101836.91
2022-10-26T21:01:37.195Z,101840.59
2022-10-26T21:04:05.062Z,101847.63
2022-10-26T21:06:31.363Z,101847.06
2022-10-26T21:08:57.670Z,101848.91
2022-10-26T21:11:26.075Z,101845.53
2022-10-26T21:13:53.286Z,101851.88
2022-10-26T21:16:19.594Z,101844.06
2022-10-26T21:18:45.917Z,101848.56
2022-10-26T21:21:13.521Z,101850.69
2022-10-26T21:23:40.575Z,101851.00
2022-10-26T21:26:06.883Z,101855.63
2022-10-26T21:28:34.041Z,101860.00
2022-10-26T21:31:00.916Z,101859.16
2022-10-26T21:33:27.218Z,101861.81
2022-10-26T21:35:53.822Z,101856.81
2022-10-26T21:38:21.441Z,101858.94
2022-10-26T21:40:47.716Z,101852.06
2022-10-26T21:43:14.015Z,101850.38
2022-10-26T21:45:40.316Z,101847.88
2022-10-26T21:48:06.619Z,101852.38
2022-10-26T21:50:32.907Z,101851.72
2022-10-26T21:52:59.206Z,101852.38
2022-10-26T21:55:26.841Z,101861.38
2022-10-26T21:57:53.162Z,101869.56
2022-10-26T22:00:19.493Z,101863.69
2022-10-26T22:02:45.766Z,101868.19
2022-10-26T22:05:12.066Z,101860.31
2022-10-26T22:07:38.362Z,101847.94
2022-10-26T22:10:10.811Z,101846.41
2022-10-26T22:12:38.901Z,101848.56
2022-10-26T22:15:05.752Z,101851.41
2022-10-26T22:17:32.044Z,101854.91
2022-10-26T22:19:58.343Z,101847.88
2022-10-26T22:22:24.630Z,101846.91
2022-10-26T22:24:50.918Z,101852.09
2022-10-26T22:27:17.192Z,101852.94
2022-10-26T22:29:44.797Z,101847.75
2022-10-26T22:32:11.096Z,101853.38
2022-10-26T22:34:37.388Z,101847.50
2022-10-26T22:37:03.682Z,101857.50
2022-10-26T22:39:29.991Z,101844.44
2022-10-26T22:41:56.269Z,101847.28
2022-10-26T22:44:22.559Z,101847.41
2022-10-26T22:46:50.209Z,101846.06
2022-10-26T22:49:16.488Z,101841.72
2022-10-26T22:51:42.744Z,101849.19
2022-10-26T22:54:11.411Z,101852.97
2022-10-26T22:56:37.971Z,101863.50
2022-10-26T22:59:04.816Z,101861.00
2022-10-26T23:01:32.225Z,101852.13
2022-10-26T23:04:00.318Z,101859.63
2022-10-26T23:06:27.444Z,101857.94
2022-10-26T23:08:53.836Z,101855.28
2022-10-26T23:11:21.401Z,101860.28
2022-10-26T23:13:47.747Z,101863.66
2022-10-26T23:16:14.666Z,101868.16
2022-10-26T23:18:41.302Z,101864.50
2022-10-26T23:21:09.695Z,101861.00
2022-10-26T23:23:36.070Z,101866.31
2022-10-26T23:26:03.028Z,101858.47
2022-10-26T23:28:29.451Z,101870.13
2022-10-26T23:30:55.748Z,101863.94
2022-10-26T23:33:22.046Z,101869.28
2022-10-26T23:35:49.533Z,101865.78
2022-10-26T23:38:17.233Z,101866.94
2022-10-26T23:40:48.167Z,101867.94
2022-10-26T23:43:14.437Z,101875.94
2022-10-26T23:45:41.145Z,101872.44
2022-10-26T23:48:07.431Z,101872.44
2022-10-26T23:50:33.774Z,101870.59
2022-10-26T23:53:00.086Z,101876.78
2022-10-26T23:55:27.711Z,101882.28
2022-10-26T23:57:53.998Z,101880.44
